sensor_id;sensor_type;location;lat;lon;timestamp;temperature;humidity
39969;DHT22;25648;47.808;19.004;2023-01-20T00:00:37;9.80;60.60
39969;DHT22;25648;47.808;19.004;2023-01-20T00:03:03;10.00;60.70
39969;DHT22;25648;47.808;19.004;2023-01-20T00:05:33;9.90;60.50
39969;DHT22;25648;47.808;19.004;2023-01-20T00:07:59;9.70;61.60
39969;DHT22;25648;47.808;19.004;2023-01-20T00:10:24;9.70;60.80
39969;DHT22;25648;47.808;19.004;2023-01-20T00:12:50;9.70;61.40
39969;DHT22;25648;47.808;19.004;2023-01-20T00:15:15;9.60;61.10
39969;DHT22;25648;47.808;19.004;2023-01-20T00:17:41;9.70;60.70
39969;DHT22;25648;47.808;19.004;2023-01-20T00:20:08;9.70;60.70
39969;DHT22;25648;47.808;19.004;2023-01-20T00:22:34;9.90;60.70
39969;DHT22;25648;47.808;19.004;2023-01-20T00:25:05;10.10;60.50
39969;DHT22;25648;47.808;19.004;2023-01-20T00:27:31;10.20;59.80
39969;DHT22;25648;47.808;19.004;2023-01-20T00:29:56;10.20;60.00
39969;DHT22;25648;47.808;19.004;2023-01-20T00:32:22;10.30;59.60
39969;DHT22;25648;47.808;19.004;2023-01-20T00:34:48;10.40;59.20
39969;DHT22;25648;47.808;19.004;2023-01-20T00:37:22;10.30;60.00
39969;DHT22;25648;47.808;19.004;2023-01-20T00:39:47;10.10;59.80
39969;DHT22;25648;47.808;19.004;2023-01-20T00:42:13;9.60;61.20
39969;DHT22;25648;47.808;19.004;2023-01-20T00:44:39;9.60;61.60
39969;DHT22;25648;47.808;19.004;2023-01-20T00:47:05;9.60;61.10
39969;DHT22;25648;47.808;19.004;2023-01-20T00:49:31;9.60;61.50
39969;DHT22;25648;47.808;19.004;2023-01-20T00:51:57;9.80;61.40
39969;DHT22;25648;47.808;19.004;2023-01-20T00:54:22;9.80;60.40
39969;DHT22;25648;47.808;19.004;2023-01-20T00:56:48;10.00;60.50
39969;DHT22;25648;47.808;19.004;2023-01-20T00:59:14;10.20;59.80
39969;DHT22;25648;47.808;19.004;2023-01-20T01:01:39;10.20;60.00
39969;DHT22;25648;47.808;19.004;2023-01-20T01:04:05;9.80;59.60
39969;DHT22;25648;47.808;19.004;2023-01-20T01:06:31;9.60;60.80
39969;DHT22;25648;47.808;19.004;2023-01-20T01:08:56;9.70;60.50
39969;DHT22;25648;47.808;19.004;2023-01-20T01:11:22;9.70;60.80
39969;DHT22;25648;47.808;19.004;2023-01-20T01:13:48;9.70;60.20
39969;DHT22;25648;47.808;19.004;2023-01-20T01:16:17;9.30;60.90
39969;DHT22;25648;47.808;19.004;2023-01-20T01:18:43;9.50;61.20
39969;DHT22;25648;47.808;19.004;2023-01-20T01:21:11;9.50;61.00
39969;DHT22;25648;47.808;19.004;2023-01-20T01:23:37;9.50;60.70
39969;DHT22;25648;47.808;19.004;2023-01-20T01:26:03;9.80;60.60
39969;DHT22;25648;47.808;19.004;2023-01-20T01:28:29;9.80;60.20
39969;DHT22;25648;47.808;19.004;2023-01-20T01:30:59;10.00;60.30
39969;DHT22;25648;47.808;19.004;2023-01-20T01:33:26;10.10;60.00
39969;DHT22;25648;47.808;19.004;2023-01-20T01:36:02;10.20;59.50
39969;DHT22;25648;47.808;19.004;2023-01-20T01:38:28;10.20;59.30
39969;DHT22;25648;47.808;19.004;2023-01-20T01:40:54;10.10;59.40
39969;DHT22;25648;47.808;19.004;2023-01-20T01:43:29;10.10;59.50
39969;DHT22;25648;47.808;19.004;2023-01-20T01:45:55;10.10;59.70
39969;DHT22;25648;47.808;19.004;2023-01-20T01:48:44;10.10;59.90
39969;DHT22;25648;47.808;19.004;2023-01-20T01:51:15;10.50;59.30
39969;DHT22;25648;47.808;19.004;2023-01-20T01:53:46;10.60;58.90
39969;DHT22;25648;47.808;19.004;2023-01-20T01:56:13;10.60;58.60
39969;DHT22;25648;47.808;19.004;2023-01-20T01:58:44;10.70;58.50
39969;DHT22;25648;47.808;19.004;2023-01-20T02:01:11;10.90;58.60
39969;DHT22;25648;47.808;19.004;2023-01-20T02:03:59;10.70;58.70
39969;DHT22;25648;47.808;19.004;2023-01-20T02:06:31;10.60;58.40
39969;DHT22;25648;47.808;19.004;2023-01-20T02:08:59;10.70;58.20
39969;DHT22;25648;47.808;19.004;2023-01-20T02:11:27;10.50;58.30
39969;DHT22;25648;47.808;19.004;2023-01-20T02:13:55;10.50;58.70
39969;DHT22;25648;47.808;19.004;2023-01-20T02:22:29;10.60;58.70
39969;DHT22;25648;47.808;19.004;2023-01-20T02:32:59;10.10;58.90
39969;DHT22;25648;47.808;19.004;2023-01-20T02:35:45;9.80;59.60
39969;DHT22;25648;47.808;19.004;2023-01-20T02:41:08;9.90;59.70
39969;DHT22;25648;47.808;19.004;2023-01-20T02:43:46;10.00;59.70
39969;DHT22;25648;47.808;19.004;2023-01-20T02:46:35;10.30;59.40
39969;DHT22;25648;47.808;19.004;2023-01-20T02:49:25;10.60;58.80
39969;DHT22;25648;47.808;19.004;2023-01-20T02:52:01;10.80;58.40
39969;DHT22;25648;47.808;19.004;2023-01-20T02:54:30;10.90;57.60
39969;DHT22;25648;47.808;19.004;2023-01-20T02:56:59;10.90;57.90
39969;DHT22;25648;47.808;19.004;2023-01-20T02:59:30;10.60;58.20
39969;DHT22;25648;47.808;19.004;2023-01-20T03:02:02;10.30;58.90
39969;DHT22;25648;47.808;19.004;2023-01-20T03:04:51;10.30;59.30
39969;DHT22;25648;47.808;19.004;2023-01-20T03:07:21;10.40;58.90
39969;DHT22;25648;47.808;19.004;2023-01-20T03:09:50;10.40;59.10
39969;DHT22;25648;47.808;19.004;2023-01-20T03:12:21;10.50;59.20
39969;DHT22;25648;47.808;19.004;2023-01-20T03:14:50;10.20;59.70
39969;DHT22;25648;47.808;19.004;2023-01-20T03:17:19;10.00;59.90
39969;DHT22;25648;47.808;19.004;2023-01-20T03:19:45;9.80;60.40
39969;DHT22;25648;47.808;19.004;2023-01-20T03:22:11;9.80;60.80
39969;DHT22;25648;47.808;19.004;2023-01-20T03:24:37;9.60;61.10
39969;DHT22;25648;47.808;19.004;2023-01-20T03:27:12;9.60;61.70
39969;DHT22;25648;47.808;19.004;2023-01-20T03:29:38;10.00;60.00
39969;DHT22;25648;47.808;19.004;2023-01-20T03:32:07;10.10;60.30
39969;DHT22;25648;47.808;19.004;2023-01-20T03:34:35;10.40;59.30
39969;DHT22;25648;47.808;19.004;2023-01-20T03:37:03;10.70;58.50
39969;DHT22;25648;47.808;19.004;2023-01-20T03:39:30;10.70;58.50
39969;DHT22;25648;47.808;19.004;2023-01-20T03:42:18;10.70;58.50
39969;DHT22;25648;47.808;19.004;2023-01-20T03:47:57;11.10;57.70
39969;DHT22;25648;47.808;19.004;2023-01-20T03:50:50;11.20;57.80
39969;DHT22;25648;47.808;19.004;2023-01-20T03:56:30;10.80;58.10
39969;DHT22;25648;47.808;19.004;2023-01-20T03:58:59;10.10;59.70
39969;DHT22;25648;47.808;19.004;2023-01-20T04:01:35;10.10;59.80
39969;DHT22;25648;47.808;19.004;2023-01-20T04:04:03;10.30;59.50
39969;DHT22;25648;47.808;19.004;2023-01-20T04:06:32;10.20;59.90
39969;DHT22;25648;47.808;19.004;2023-01-20T04:09:04;10.30;59.10
39969;DHT22;25648;47.808;19.004;2023-01-20T04:11:30;9.80;60.30
39969;DHT22;25648;47.808;19.004;2023-01-20T04:13:56;9.70;61.20
39969;DHT22;25648;47.808;19.004;2023-01-20T04:16:26;9.60;61.10
39969;DHT22;25648;47.808;19.004;2023-01-20T04:18:52;9.80;61.20
39969;DHT22;25648;47.808;19.004;2023-01-20T04:21:31;10.00;59.90
39969;DHT22;25648;47.808;19.004;2023-01-20T04:24:07;9.90;60.70
39969;DHT22;25648;47.808;19.004;2023-01-20T04:26:35;10.00;61.00
39969;DHT22;25648;47.808;19.004;2023-01-20T04:29:01;10.30;59.90
39969;DHT22;25648;47.808;19.004;2023-01-20T04:31:33;10.60;59.30
39969;DHT22;25648;47.808;19.004;2023-01-20T04:34:00;10.70;59.00
39969;DHT22;25648;47.808;19.004;2023-01-20T04:36:26;10.60;58.70
39969;DHT22;25648;47.808;19.004;2023-01-20T04:38:51;10.60;59.40
39969;DHT22;25648;47.808;19.004;2023-01-20T04:41:17;10.70;59.40
39969;DHT22;25648;47.808;19.004;2023-01-20T04:43:44;10.90;58.90
39969;DHT22;25648;47.808;19.004;2023-01-20T04:46:14;11.20;58.30
39969;DHT22;25648;47.808;19.004;2023-01-20T04:48:41;11.20;57.80
39969;DHT22;25648;47.808;19.004;2023-01-20T04:51:08;11.30;57.60
39969;DHT22;25648;47.808;19.004;2023-01-20T04:53:34;11.40;57.50
39969;DHT22;25648;47.808;19.004;2023-01-20T04:56:00;11.30;57.80
39969;DHT22;25648;47.808;19.004;2023-01-20T04:58:26;11.30;58.10
39969;DHT22;25648;47.808;19.004;2023-01-20T05:00:52;11.40;57.60
39969;DHT22;25648;47.808;19.004;2023-01-20T05:03:19;11.50;57.10
39969;DHT22;25648;47.808;19.004;2023-01-20T05:05:54;11.50;56.80
39969;DHT22;25648;47.808;19.004;2023-01-20T05:08:20;11.10;58.10
39969;DHT22;25648;47.808;19.004;2023-01-20T05:10:52;11.00;57.70
39969;DHT22;25648;47.808;19.004;2023-01-20T05:13:18;11.00;58.30
39969;DHT22;25648;47.808;19.004;2023-01-20T05:15:44;11.20;58.00
39969;DHT22;25648;47.808;19.004;2023-01-20T05:18:10;11.20;58.00
39969;DHT22;25648;47.808;19.004;2023-01-20T05:20:35;11.10;58.10
39969;DHT22;25648;47.808;19.004;2023-01-20T05:23:01;10.90;58.70
39969;DHT22;25648;47.808;19.004;2023-01-20T05:25:27;10.70;58.60
39969;DHT22;25648;47.808;19.004;2023-01-20T05:27:53;10.60;59.10
39969;DHT22;25648;47.808;19.004;2023-01-20T05:30:18;10.70;59.20
39969;DHT22;25648;47.808;19.004;2023-01-20T05:32:45;10.60;59.40
39969;DHT22;25648;47.808;19.004;2023-01-20T05:35:13;10.80;58.90
39969;DHT22;25648;47.808;19.004;2023-01-20T05:37:39;10.40;59.80
39969;DHT22;25648;47.808;19.004;2023-01-20T05:40:05;10.60;59.70
39969;DHT22;25648;47.808;19.004;2023-01-20T05:42:31;10.50;59.80
39969;DHT22;25648;47.808;19.004;2023-01-20T05:44:57;10.60;59.70
39969;DHT22;25648;47.808;19.004;2023-01-20T05:47:23;10.90;58.90
39969;DHT22;25648;47.808;19.004;2023-01-20T05:49:49;11.20;58.50
39969;DHT22;25648;47.808;19.004;2023-01-20T05:52:14;11.30;57.80
39969;DHT22;25648;47.808;19.004;2023-01-20T05:54:40;11.50;57.50
39969;DHT22;25648;47.808;19.004;2023-01-20T05:57:06;11.40;57.50
39969;DHT22;25648;47.808;19.004;2023-01-20T05:59:32;11.30;58.00
39969;DHT22;25648;47.808;19.004;2023-01-20T06:01:57;11.40;57.80
39969;DHT22;25648;47.808;19.004;2023-01-20T06:04:23;11.40;57.20
39969;DHT22;25648;47.808;19.004;2023-01-20T06:06:49;11.30;57.70
39969;DHT22;25648;47.808;19.004;2023-01-20T06:09:14;11.20;57.90
39969;DHT22;25648;47.808;19.004;2023-01-20T06:11:40;11.10;58.00
39969;DHT22;25648;47.808;19.004;2023-01-20T06:14:06;10.90;58.50
39969;DHT22;25648;47.808;19.004;2023-01-20T06:16:32;10.90;58.60
39969;DHT22;25648;47.808;19.004;2023-01-20T06:18:57;11.20;58.50
39969;DHT22;25648;47.808;19.004;2023-01-20T06:21:23;11.40;58.00
39969;DHT22;25648;47.808;19.004;2023-01-20T06:23:49;11.40;58.00
39969;DHT22;25648;47.808;19.004;2023-01-20T06:26:15;11.40;57.90
39969;DHT22;25648;47.808;19.004;2023-01-20T06:28:41;11.50;57.70
39969;DHT22;25648;47.808;19.004;2023-01-20T06:31:10;11.60;57.80
39969;DHT22;25648;47.808;19.004;2023-01-20T06:33:37;11.70;57.60
39969;DHT22;25648;47.808;19.004;2023-01-20T06:36:04;11.60;57.40
39969;DHT22;25648;47.808;19.004;2023-01-20T06:38:32;11.40;57.70
39969;DHT22;25648;47.808;19.004;2023-01-20T06:41:03;11.20;58.50
39969;DHT22;25648;47.808;19.004;2023-01-20T06:43:30;10.90;58.00
39969;DHT22;25648;47.808;19.004;2023-01-20T06:46:04;10.60;59.60
39969;DHT22;25648;47.808;19.004;2023-01-20T06:48:31;10.40;60.00
39969;DHT22;25648;47.808;19.004;2023-01-20T06:51:06;10.40;60.40
39969;DHT22;25648;47.808;19.004;2023-01-20T06:53:32;10.60;59.70
39969;DHT22;25648;47.808;19.004;2023-01-20T06:55:58;10.60;58.90
39969;DHT22;25648;47.808;19.004;2023-01-20T06:58:27;10.10;59.90
39969;DHT22;25648;47.808;19.004;2023-01-20T07:00:54;9.90;60.70
39969;DHT22;25648;47.808;19.004;2023-01-20T07:03:20;9.80;60.90
39969;DHT22;25648;47.808;19.004;2023-01-20T07:05:59;10.00;60.60
39969;DHT22;25648;47.808;19.004;2023-01-20T07:08:25;10.20;60.80
39969;DHT22;25648;47.808;19.004;2023-01-20T07:10:50;10.20;60.40
39969;DHT22;25648;47.808;19.004;2023-01-20T07:13:16;10.30;60.00
39969;DHT22;25648;47.808;19.004;2023-01-20T07:15:42;10.40;60.10
39969;DHT22;25648;47.808;19.004;2023-01-20T07:18:07;10.30;59.70
39969;DHT22;25648;47.808;19.004;2023-01-20T07:20:33;10.40;59.90
39969;DHT22;25648;47.808;19.004;2023-01-20T07:23:00;10.50;59.70
39969;DHT22;25648;47.808;19.004;2023-01-20T07:25:25;10.60;59.30
39969;DHT22;25648;47.808;19.004;2023-01-20T07:27:51;10.60;59.30
39969;DHT22;25648;47.808;19.004;2023-01-20T07:30:18;10.60;59.40
39969;DHT22;25648;47.808;19.004;2023-01-20T07:32:43;10.30;59.60
39969;DHT22;25648;47.808;19.004;2023-01-20T07:35:09;10.30;59.90
39969;DHT22;25648;47.808;19.004;2023-01-20T07:37:35;10.30;60.40
39969;DHT22;25648;47.808;19.004;2023-01-20T07:40:01;10.40;60.30
39969;DHT22;25648;47.808;19.004;2023-01-20T07:42:27;10.60;59.90
39969;DHT22;25648;47.808;19.004;2023-01-20T07:44:52;10.60;59.50
39969;DHT22;25648;47.808;19.004;2023-01-20T07:47:18;10.60;59.40
39969;DHT22;25648;47.808;19.004;2023-01-20T07:49:44;10.40;59.50
39969;DHT22;25648;47.808;19.004;2023-01-20T07:52:09;10.60;59.50
39969;DHT22;25648;47.808;19.004;2023-01-20T07:54:35;10.70;59.10
39969;DHT22;25648;47.808;19.004;2023-01-20T07:57:01;10.50;59.30
39969;DHT22;25648;47.808;19.004;2023-01-20T07:59:26;10.60;59.20
39969;DHT22;25648;47.808;19.004;2023-01-20T08:01:53;10.50;59.40
39969;DHT22;25648;47.808;19.004;2023-01-20T08:04:19;10.60;59.40
39969;DHT22;25648;47.808;19.004;2023-01-20T08:06:45;10.70;58.90
39969;DHT22;25648;47.808;19.004;2023-01-20T08:09:11;10.50;59.30
39969;DHT22;25648;47.808;19.004;2023-01-20T08:11:39;10.50;59.60
39969;DHT22;25648;47.808;19.004;2023-01-20T08:14:05;10.50;59.30
39969;DHT22;25648;47.808;19.004;2023-01-20T08:16:30;10.70;59.50
39969;DHT22;25648;47.808;19.004;2023-01-20T08:18:56;10.80;58.50
39969;DHT22;25648;47.808;19.004;2023-01-20T08:21:27;10.60;59.70
39969;DHT22;25648;47.808;19.004;2023-01-20T08:23:54;10.70;59.40
39969;DHT22;25648;47.808;19.004;2023-01-20T08:26:21;10.80;59.40
39969;DHT22;25648;47.808;19.004;2023-01-20T08:28:50;10.50;59.30
39969;DHT22;25648;47.808;19.004;2023-01-20T08:31:18;10.60;59.50
39969;DHT22;25648;47.808;19.004;2023-01-20T08:33:44;10.60;60.00
39969;DHT22;25648;47.808;19.004;2023-01-20T08:36:12;10.80;59.60
39969;DHT22;25648;47.808;19.004;2023-01-20T08:38:39;11.10;58.90
39969;DHT22;25648;47.808;19.004;2023-01-20T08:41:10;11.00;59.00
39969;DHT22;25648;47.808;19.004;2023-01-20T08:43:37;10.90;59.10
39969;DHT22;25648;47.808;19.004;2023-01-20T08:46:13;11.00;59.20
39969;DHT22;25648;47.808;19.004;2023-01-20T08:48:40;11.10;59.00
39969;DHT22;25648;47.808;19.004;2023-01-20T08:51:09;11.00;59.00
39969;DHT22;25648;47.808;19.004;2023-01-20T08:53:36;10.90;59.50
39969;DHT22;25648;47.808;19.004;2023-01-20T08:56:02;11.00;59.20
39969;DHT22;25648;47.808;19.004;2023-01-20T08:58:28;11.20;59.30
39969;DHT22;25648;47.808;19.004;2023-01-20T09:00:55;11.40;58.50
39969;DHT22;25648;47.808;19.004;2023-01-20T09:03:21;11.50;58.50
39969;DHT22;25648;47.808;19.004;2023-01-20T09:05:47;11.50;58.20
39969;DHT22;25648;47.808;19.004;2023-01-20T09:08:13;11.30;58.50
39969;DHT22;25648;47.808;19.004;2023-01-20T09:10:39;11.20;59.30
39969;DHT22;25648;47.808;19.004;2023-01-20T09:13:04;11.10;59.10
39969;DHT22;25648;47.808;19.004;2023-01-20T09:15:30;11.10;59.10
39969;DHT22;25648;47.808;19.004;2023-01-20T09:17:56;11.20;58.90
39969;DHT22;25648;47.808;19.004;2023-01-20T09:20:23;11.20;58.90
39969;DHT22;25648;47.808;19.004;2023-01-20T09:22:50;11.10;58.60
39969;DHT22;25648;47.808;19.004;2023-01-20T09:25:16;11.00;59.00
39969;DHT22;25648;47.808;19.004;2023-01-20T09:27:42;11.00;59.10
39969;DHT22;25648;47.808;19.004;2023-01-20T09:30:08;11.00;59.20
39969;DHT22;25648;47.808;19.004;2023-01-20T09:32:34;10.90;59.50
39969;DHT22;25648;47.808;19.004;2023-01-20T09:34:59;10.60;60.00
39969;DHT22;25648;47.808;19.004;2023-01-20T09:37:25;10.60;60.30
39969;DHT22;25648;47.808;19.004;2023-01-20T09:40:19;10.80;59.90
39969;DHT22;25648;47.808;19.004;2023-01-20T09:46:14;10.80;59.90
39969;DHT22;25648;47.808;19.004;2023-01-20T09:48:56;10.60;60.60
39969;DHT22;25648;47.808;19.004;2023-01-20T09:54:50;10.00;61.40
39969;DHT22;25648;47.808;19.004;2023-01-20T09:57:20;10.20;61.20
39969;DHT22;25648;47.808;19.004;2023-01-20T09:59:52;10.30;61.20
39969;DHT22;25648;47.808;19.004;2023-01-20T10:02:24;10.70;60.20
39969;DHT22;25648;47.808;19.004;2023-01-20T10:04:55;10.80;60.10
39969;DHT22;25648;47.808;19.004;2023-01-20T10:07:33;10.70;59.60
39969;DHT22;25648;47.808;19.004;2023-01-20T10:10:19;10.60;60.30
39969;DHT22;25648;47.808;19.004;2023-01-20T10:21:00;11.70;58.30
39969;DHT22;25648;47.808;19.004;2023-01-20T10:26:26;11.10;59.70
39969;DHT22;25648;47.808;19.004;2023-01-20T10:29:02;11.20;60.00
39969;DHT22;25648;47.808;19.004;2023-01-20T10:31:39;11.30;59.30
39969;DHT22;25648;47.808;19.004;2023-01-20T10:34:11;11.10;59.70
39969;DHT22;25648;47.808;19.004;2023-01-20T10:36:43;10.80;60.40
39969;DHT22;25648;47.808;19.004;2023-01-20T10:39:43;10.80;60.30
39969;DHT22;25648;47.808;19.004;2023-01-20T10:42:15;10.60;60.80
39969;DHT22;25648;47.808;19.004;2023-01-20T10:44:42;10.50;61.60
39969;DHT22;25648;47.808;19.004;2023-01-20T10:50:16;10.70;61.10
39969;DHT22;25648;47.808;19.004;2023-01-20T10:56:46;11.20;59.20
39969;DHT22;25648;47.808;19.004;2023-01-20T10:59:28;11.30;59.30
39969;DHT22;25648;47.808;19.004;2023-01-20T11:01:59;11.60;59.30
39969;DHT22;25648;47.808;19.004;2023-01-20T11:04:27;11.80;58.80
39969;DHT22;25648;47.808;19.004;2023-01-20T11:06:58;11.90;58.90
39969;DHT22;25648;47.808;19.004;2023-01-20T11:09:37;12.00;58.40
39969;DHT22;25648;47.808;19.004;2023-01-20T11:12:08;11.80;58.50
39969;DHT22;25648;47.808;19.004;2023-01-20T11:14:35;11.80;58.40
39969;DHT22;25648;47.808;19.004;2023-01-20T11:17:05;11.90;58.70
39969;DHT22;25648;47.808;19.004;2023-01-20T11:22:16;12.20;57.50
39969;DHT22;25648;47.808;19.004;2023-01-20T11:24:47;12.00;57.40
39969;DHT22;25648;47.808;19.004;2023-01-20T11:27:20;11.80;58.70
39969;DHT22;25648;47.808;19.004;2023-01-20T11:30:02;11.90;58.40
39969;DHT22;25648;47.808;19.004;2023-01-20T11:32:37;11.90;58.40
39969;DHT22;25648;47.808;19.004;2023-01-20T11:35:23;11.80;58.60
39969;DHT22;25648;47.808;19.004;2023-01-20T11:37:49;11.50;59.10
39969;DHT22;25648;47.808;19.004;2023-01-20T11:40:22;11.20;59.70
39969;DHT22;25648;47.808;19.004;2023-01-20T11:42:49;11.20;59.80
39969;DHT22;25648;47.808;19.004;2023-01-20T11:45:22;10.90;59.90
39969;DHT22;25648;47.808;19.004;2023-01-20T11:48:03;10.70;60.50
39969;DHT22;25648;47.808;19.004;2023-01-20T11:50:36;10.80;60.20
39969;DHT22;25648;47.808;19.004;2023-01-20T11:53:24;11.00;60.00
39969;DHT22;25648;47.808;19.004;2023-01-20T11:56:00;11.10;60.00
39969;DHT22;25648;47.808;19.004;2023-01-20T12:01:23;10.90;60.30
39969;DHT22;25648;47.808;19.004;2023-01-20T12:04:00;10.90;60.20
39969;DHT22;25648;47.808;19.004;2023-01-20T12:06:48;10.90;60.30
39969;DHT22;25648;47.808;19.004;2023-01-20T12:09:19;10.90;60.30
39969;DHT22;25648;47.808;19.004;2023-01-20T12:11:57;11.10;59.50
39969;DHT22;25648;47.808;19.004;2023-01-20T12:20:04;10.80;60.20
39969;DHT22;25648;47.808;19.004;2023-01-20T12:22:36;10.80;60.20
39969;DHT22;25648;47.808;19.004;2023-01-20T12:27:53;11.30;59.60
39969;DHT22;25648;47.808;19.004;2023-01-20T12:30:41;10.80;60.00
39969;DHT22;25648;47.808;19.004;2023-01-20T12:36:00;10.40;61.30
39969;DHT22;25648;47.808;19.004;2023-01-20T12:38:33;10.40;61.50
39969;DHT22;25648;47.808;19.004;2023-01-20T12:41:04;10.60;60.90
39969;DHT22;25648;47.808;19.004;2023-01-20T12:43:41;10.30;61.80
39969;DHT22;25648;47.808;19.004;2023-01-20T12:46:32;10.50;61.30
39969;DHT22;25648;47.808;19.004;2023-01-20T12:49:18;10.50;61.60
39969;DHT22;25648;47.808;19.004;2023-01-20T12:52:15;10.60;60.90
39969;DHT22;25648;47.808;19.004;2023-01-20T12:57:47;10.40;61.50
39969;DHT22;25648;47.808;19.004;2023-01-20T13:00:37;10.30;61.60
39969;DHT22;25648;47.808;19.004;2023-01-20T13:03:18;10.30;61.60
39969;DHT22;25648;47.808;19.004;2023-01-20T13:09:11;10.30;61.90
39969;DHT22;25648;47.808;19.004;2023-01-20T13:14:45;10.30;61.70
39969;DHT22;25648;47.808;19.004;2023-01-20T13:17:33;10.20;61.80
39969;DHT22;25648;47.808;19.004;2023-01-20T13:20:02;10.20;62.30
39969;DHT22;25648;47.808;19.004;2023-01-20T13:22:30;10.50;61.80
39969;DHT22;25648;47.808;19.004;2023-01-20T13:24:57;10.70;61.50
39969;DHT22;25648;47.808;19.004;2023-01-20T13:27:34;10.80;60.80
39969;DHT22;25648;47.808;19.004;2023-01-20T13:30:02;11.10;60.50
39969;DHT22;25648;47.808;19.004;2023-01-20T13:32:37;10.90;60.40
39969;DHT22;25648;47.808;19.004;2023-01-20T13:37:58;11.40;59.70
39969;DHT22;25648;47.808;19.004;2023-01-20T13:48:33;11.20;60.40
39969;DHT22;25648;47.808;19.004;2023-01-20T13:53:48;11.30;60.10
39969;DHT22;25648;47.808;19.004;2023-01-20T13:56:28;11.20;60.30
39969;DHT22;25648;47.808;19.004;2023-01-20T13:58:56;11.20;60.20
39969;DHT22;25648;47.808;19.004;2023-01-20T14:01:22;11.10;60.10
39969;DHT22;25648;47.808;19.004;2023-01-20T14:04:17;11.10;60.80
39969;DHT22;25648;47.808;19.004;2023-01-20T14:06:50;11.10;60.30
39969;DHT22;25648;47.808;19.004;2023-01-20T14:09:20;10.90;60.60
39969;DHT22;25648;47.808;19.004;2023-01-20T14:11:54;10.90;61.20
39969;DHT22;25648;47.808;19.004;2023-01-20T14:14:23;11.00;60.80
39969;DHT22;25648;47.808;19.004;2023-01-20T14:16:49;11.00;60.90
39969;DHT22;25648;47.808;19.004;2023-01-20T14:19:22;11.10;60.40
39969;DHT22;25648;47.808;19.004;2023-01-20T14:21:55;11.20;60.50
39969;DHT22;25648;47.808;19.004;2023-01-20T14:27:05;11.40;60.50
39969;DHT22;25648;47.808;19.004;2023-01-20T14:29:32;11.40;60.70
39969;DHT22;25648;47.808;19.004;2023-01-20T14:31:58;11.20;60.60
39969;DHT22;25648;47.808;19.004;2023-01-20T14:34:29;11.20;60.60
39969;DHT22;25648;47.808;19.004;2023-01-20T14:37:01;11.00;60.80
39969;DHT22;25648;47.808;19.004;2023-01-20T14:39:31;10.70;61.70
39969;DHT22;25648;47.808;19.004;2023-01-20T14:41:59;10.80;61.40
39969;DHT22;25648;47.808;19.004;2023-01-20T14:44:27;10.70;61.80
39969;DHT22;25648;47.808;19.004;2023-01-20T14:46:56;10.80;61.60
39969;DHT22;25648;47.808;19.004;2023-01-20T14:49:31;11.00;61.70
39969;DHT22;25648;47.808;19.004;2023-01-20T14:51:58;11.20;60.80
39969;DHT22;25648;47.808;19.004;2023-01-20T14:54:34;11.00;61.80
39969;DHT22;25648;47.808;19.004;2023-01-20T14:57:30;11.20;60.80
39969;DHT22;25648;47.808;19.004;2023-01-20T15:02:35;11.20;60.90
39969;DHT22;25648;47.808;19.004;2023-01-20T15:05:16;11.00;61.30
39969;DHT22;25648;47.808;19.004;2023-01-20T15:07:42;11.10;61.10
39969;DHT22;25648;47.808;19.004;2023-01-20T15:10:13;11.00;61.30
39969;DHT22;25648;47.808;19.004;2023-01-20T15:12:50;11.20;60.70
39969;DHT22;25648;47.808;19.004;2023-01-20T15:15:30;10.80;61.50
39969;DHT22;25648;47.808;19.004;2023-01-20T15:20:52;10.40;61.90
39969;DHT22;25648;47.808;19.004;2023-01-20T15:25:48;10.10;62.50
39969;DHT22;25648;47.808;19.004;2023-01-20T15:28:26;10.00;64.50
39969;DHT22;25648;47.808;19.004;2023-01-20T15:30:55;10.00;63.60
39969;DHT22;25648;47.808;19.004;2023-01-20T15:33:21;10.20;63.30
39969;DHT22;25648;47.808;19.004;2023-01-20T15:35:58;10.20;63.20
39969;DHT22;25648;47.808;19.004;2023-01-20T15:38:26;10.20;62.40
39969;DHT22;25648;47.808;19.004;2023-01-20T15:40:53;9.90;63.70
39969;DHT22;25648;47.808;19.004;2023-01-20T15:43:18;10.00;63.70
39969;DHT22;25648;47.808;19.004;2023-01-20T15:45:45;9.90;63.50
39969;DHT22;25648;47.808;19.004;2023-01-20T15:48:18;10.00;63.00
39969;DHT22;25648;47.808;19.004;2023-01-20T15:50:46;10.10;63.30
39969;DHT22;25648;47.808;19.004;2023-01-20T15:53:12;10.10;62.40
39969;DHT22;25648;47.808;19.004;2023-01-20T15:55:56;9.70;63.50
39969;DHT22;25648;47.808;19.004;2023-01-20T15:58:29;9.90;62.80
39969;DHT22;25648;47.808;19.004;2023-01-20T16:00:58;10.00;62.40
39969;DHT22;25648;47.808;19.004;2023-01-20T16:03:24;10.20;62.30
39969;DHT22;25648;47.808;19.004;2023-01-20T16:05:52;9.90;62.60
39969;DHT22;25648;47.808;19.004;2023-01-20T16:08:20;9.80;63.30
39969;DHT22;25648;47.808;19.004;2023-01-20T16:10:46;9.80;63.30
39969;DHT22;25648;47.808;19.004;2023-01-20T16:13:14;9.90;62.80
39969;DHT22;25648;47.808;19.004;2023-01-20T16:15:41;9.80;62.30
39969;DHT22;25648;47.808;19.004;2023-01-20T16:18:15;9.50;63.80
39969;DHT22;25648;47.808;19.004;2023-01-20T16:20:43;9.60;63.50
39969;DHT22;25648;47.808;19.004;2023-01-20T16:23:09;9.60;63.30
39969;DHT22;25648;47.808;19.004;2023-01-20T16:25:35;9.60;63.40
39969;DHT22;25648;47.808;19.004;2023-01-20T16:28:01;9.60;63.70
39969;DHT22;25648;47.808;19.004;2023-01-20T16:30:26;9.50;63.60
39969;DHT22;25648;47.808;19.004;2023-01-20T16:32:52;9.10;63.90
39969;DHT22;25648;47.808;19.004;2023-01-20T16:35:19;9.10;64.90
39969;DHT22;25648;47.808;19.004;2023-01-20T16:37:46;8.80;65.00
39969;DHT22;25648;47.808;19.004;2023-01-20T16:40:18;9.20;64.90
39969;DHT22;25648;47.808;19.004;2023-01-20T16:42:45;9.30;63.30
39969;DHT22;25648;47.808;19.004;2023-01-20T16:45:22;9.30;64.00
39969;DHT22;25648;47.808;19.004;2023-01-20T16:47:48;9.20;64.40
39969;DHT22;25648;47.808;19.004;2023-01-20T16:50:14;9.10;63.60
39969;DHT22;25648;47.808;19.004;2023-01-20T16:52:40;9.10;65.00
39969;DHT22;25648;47.808;19.004;2023-01-20T16:55:06;9.40;63.50
39969;DHT22;25648;47.808;19.004;2023-01-20T16:57:32;9.40;63.40
39969;DHT22;25648;47.808;19.004;2023-01-20T16:59:58;9.40;63.20
39969;DHT22;25648;47.808;19.004;2023-01-20T17:02:23;9.40;63.30
39969;DHT22;25648;47.808;19.004;2023-01-20T17:04:49;9.40;63.80
39969;DHT22;25648;47.808;19.004;2023-01-20T17:07:15;9.70;63.10
39969;DHT22;25648;47.808;19.004;2023-01-20T17:09:41;9.80;62.70
39969;DHT22;25648;47.808;19.004;2023-01-20T17:12:07;9.70;62.30
39969;DHT22;25648;47.808;19.004;2023-01-20T17:14:33;9.60;62.60